Arlington, Colorado
Current Conditions -  °F | °C
As of 7:53 PM on Saturday 25 Oct 2014 (Local Time) from KLHX Reporting Station
Clear Clear  
Wind Chill: 66°   Ceiling: Unl
Heat Index: 66°   Visibility: 10mi
Dew Point: 33°   Wind: 7mph
Humidity: 29%   Direction: 70°ENE
Pressure: 29.98"   Gusts: NA
Location:  38.34°N, 103.34°W
Report Text: KLHX 260153Z AUTO 07006KT 10SM CLR 19/01 A2998 RMK AO2 SLP115 T01890006
Loading
Personal Weather Stations






























Interactive Weather Map New forecast layout! Learn more

10-Day Weather Forecast

Advertisements
Track Severe Weather on mobile